Weather observations for the past three days for
Richmond Municipal Airport
Imperial (Metric)
Date Time (edt) Wind (mph) Vis. (mi.) Weather Sky Cond. Temperature (ºF) Relative Humidity Wind Chill (°F) Heat Index (°F) Pressure Precipitation (in)
Air Dwpt 6 hour altimeter (in) sea level (mb) 1 hr 3 hr 6 hr
Max. Min.
09 09:15 SW 8 10.00 Mostly Cloudy BKN005 53.6 51.8 94% 29.79 0.0
09 08:55 SW 8 10.00 Overcast OVC005 53.6 51.8 94% 29.79 0.0
09 08:35 SW 6 10.00 Overcast OVC003 51.8 51.8 100% 29.79 0.0
09 08:15 W 6 10.00 Mostly Cloudy BKN003 51.8 51.8 100% 29.79 0.0
09 07:55 Calm 10.00 Partly Cloudy SCT005 SCT070 51.8 51.8 100% 29.78 0.0 0.01
09 07:35 W 3 10.00 Partly Cloudy SCT005 SCT070 SCT120 51.8 50 94% 29.78 0.0 0.01
09 07:15 SW 6 10.00 Mostly Cloudy SCT090 BKN120 51.8 50 94% 29.77 0.0 0.01
09 06:55 S 10 10.00 Light Drizzle SCT075 BKN100 OVC110 51.8 51.8 100% 29.76 0.0 0.01
09 06:35 S 10 10.00 Light Rain SCT032 BKN070 OVC100 51.8 51.8 100% 29.77 0.0 0.01
09 06:15 SW 10 10.00 Light Rain SCT028 BKN033 OVC060 51.8 51.8 100% 29.78 0.0
09 05:55 SW 13 10.00 Light Rain SCT028 BKN065 OVC090 51.8 51.8 100% 29.78 0.0 0.01
09 05:35 SW 12 10.00 Light Rain OVC065 51.8 51.8 100% 29.78 0.0 0.01
09 05:15 SW 13 10.00 Light Rain SCT036 BKN065 OVC090 51.8 51.8 100% 29.78 0.0
09 04:55 SW 12 10.00 Light Rain SCT036 BKN070 OVC090 51.8 51.8 100% 29.78 0.0 0.02
09 04:35 SW 10 7.00 Light Rain SCT020 SCT035 OVC080 51.8 51.8 100% 29.78 0.0 0.02
09 04:15 SW 6 10.00 Light Rain SCT012 BKN050 OVC070 51.8 51.8 100% 29.79 0.0 0.01
09 03:55 SW 8 7.00 Light Rain SCT011 SCT018 OVC070 51.8 51.8 100% 29.8 0.0 0.09
09 03:35 SW 10 10.00 Light Rain SCT055 OVC070 51.8 51.8 100% 29.79 0.0 0.07
09 03:15 SW 14 7.00 Rain SCT060 OVC065 51.8 51.8 100% 29.8 0.0 0.04
09 02:55 SW 14 7.00 Rain OVC060 51.8 51.8 100% 29.81 0.0 0.09
09 02:35 SW 14 7.00 Rain OVC060 51.8 51.8 100% 29.82 0.0 0.06
09 02:15 SW 13 7.00 Rain SCT060 OVC070 51.8 51.8 100% 29.82 0.0 0.02
09 01:55 S 9 7.00 Rain OVC060 51.8 51.8 100% 29.82 0.0 0.09
09 01:35 W 7 7.00 Rain OVC065 51.8 51.8 100% 29.83 0.0 0.06
09 01:15 SW 6 7.00 Rain SCT055 OVC065 51.8 51.8 100% 29.83 0.0 0.03
09 00:55 SW 6 7.00 Rain SCT046 OVC060 51.8 51.8 100% 29.84 0.0 0.08
09 00:35 W 9 7.00 Light Rain SCT046 OVC060 51.8 51.8 100% 29.84 0.0 0.05
09 00:15 SW 8 7.00 Rain SCT046 OVC060 51.8 51.8 100% 29.84 0.0 0.02
08 23:55 SW 8 7.00 Light Rain SCT048 OVC060 51.8 51.8 100% 29.85 0.0 0.04
08 23:35 SW 7 10.00 Light Rain SCT048 OVC065 51.8 51.8 100% 29.85 0.0 0.02
08 23:15 W 7 7.00 Light Rain OVC065 51.8 51.8 100% 29.86 0.0 0.01
08 22:55 W 8 7.00 Light Rain OVC065 51.8 51.8 100% 29.86 0.0 0.06
08 22:35 SW 9 7.00 Light Rain OVC065 51.8 51.8 100% 29.86 0.0 0.04
08 22:15 SW 7 7.00 Light Rain OVC055 51.8 51.8 100% 29.86 0.0 0.01
08 21:55 W 7 7.00 Light Rain OVC055 51.8 51.8 100% 29.85 0.0 0.05
08 21:35 W 9 10.00 Light Rain OVC055 51.8 51.8 100% 29.85 0.0 0.03
08 21:15 W 7 10.00 Light Rain OVC065 51.8 51.8 100% 29.84 0.0 0.01
08 20:55 W 5 10.00 Rain OVC065 51.8 51.8 100% 29.84 0.0 0.02
08 20:35 W 6 10.00 Light Rain OVC065 53.6 50 88% 29.84 0.0 0.01
08 20:15 W 7 10.00 Light Rain SCT060 BKN075 OVC085 53.6 50 88% 29.84 0.0
08 19:55 NW 9 10.00 Light Rain BKN070 OVC085 53.6 50 88% 29.84 0.0
08 19:35 W 10 G 18 10.00 Light Rain BKN060 OVC080 55.4 48.2 77% 29.84 0.0
08 19:15 W 8 10.00 Light Rain SCT070 OVC080 57.2 48.2 72% 29.83 0.0
08 18:55 SW 12 10.00 Light Rain BKN070 OVC080 59 46.4 63% 29.83 0.0
08 18:35 SW 9 10.00 Light Rain BKN070 OVC085 59 46.4 63% 29.83 0.0
08 18:15 SW 8 10.00 Light Drizzle SCT070 OVC095 59 46.4 63% 29.82 0.0
08 17:55 SW 7 10.00 Overcast SCT070 OVC095 60.8 46.4 59% 29.82 0.0
08 17:35 SW 5 10.00 Overcast OVC085 60.8 46.4 59% 29.82 0.0
08 17:15 SW 3 10.00 Overcast OVC085 60.8 46.4 59% 29.83 0.0
08 16:55 SW 6 10.00 Overcast SCT060 OVC085 60.8 44.6 55% 29.83 0.0
08 16:35 SW 8 10.00 Overcast SCT060 OVC085 60.8 44.6 55% 29.84 0.0
08 16:15 SW 9 10.00 Overcast OVC085 60.8 42.8 52% 29.85 0.0
08 15:55 SW 12 G 18 10.00 Overcast OVC085 60.8 42.8 52% 29.86 0.0
08 15:35 SW 13 10.00 Overcast OVC085 60.8 42.8 52% 29.86 0.0
08 15:15 SW 12 10.00 Overcast SCT055 OVC085 60.8 42.8 52% 29.87 0.0
08 14:55 SW 13 10.00 Overcast SCT055 BKN085 OVC110 60.8 42.8 52% 29.88 0.0
08 14:35 SW 20 G 24 10.00 Overcast BKN085 OVC110 62.6 42.8 49% 29.88 0.0
08 14:15 SW 17 10.00 Overcast OVC085 62.6 42.8 49% 29.89 0.0
08 13:55 SW 17 10.00 Overcast OVC095 62.6 42.8 49% 29.9 0.0
08 13:35 SW 16 G 22 10.00 Overcast OVC085 60.8 42.8 52% 29.91 0.0
08 13:15 SW 16 G 22 10.00 Overcast OVC085 60.8 42.8 52% 29.92 0.0
08 12:55 SW 16 10.00 Overcast OVC085 59 42.8 55% 29.93 0.0
08 12:35 SW 18 G 24 10.00 Overcast BKN085 OVC110 60.8 42.8 52% 29.93 0.0
08 12:15 SW 18 G 25 10.00 Mostly Cloudy SCT085 BKN110 62.6 44.6 52% 29.94 0.0
08 11:55 SW 18 G 23 10.00 Partly Cloudy SCT085 60.8 44.6 55% 29.94 0.0
08 11:35 SW 15 G 24 10.00 Partly Cloudy SCT085 60.8 42.8 52% 29.94 0.0
08 11:15 W 18 G 24 10.00 Partly Cloudy SCT085 59 42.8 55% 29.94 0.0
08 10:55 SW 17 G 28 10.00 Fair CLR 59 42.8 55% 29.95 0.0
08 10:35 SW 17 G 26 10.00 Partly Cloudy SCT090 59 42.8 55% 29.95 0.0
08 10:15 SW 20 G 28 10.00 Partly Cloudy SCT090 55.4 41 59% 29.95 0.0
08 09:55 SW 18 G 25 10.00 Fair CLR 55.4 39.2 55% 29.96 0.0
08 09:35 SW 17 G 22 10.00 Fair CLR 53.6 37.4 54% 29.96 0.0
08 09:15 SW 12 G 18 10.00 Fair CLR 53.6 39.2 58% 29.96 0.0
08 08:55 SW 12 10.00 Fair CLR 51.8 37.4 58% 29.96 0.0
08 08:35 W 10 10.00 Fair CLR 50 37.4 62% 46 29.96 0.0
08 08:15 SW 13 10.00 Fair CLR 50 37.4 62% 46 29.95 0.0
08 07:55 SW 10 10.00 Fair CLR 48.2 37.4 66% 44 29.95 0.0
08 07:35 SW 8 10.00 Fair CLR 44.6 37.4 76% 41 29.95 0.0
08 07:15 S 7 10.00 Fair CLR 42.8 37.4 81% 39 29.95 0.0
08 06:55 SW 9 10.00 Fair CLR 44.6 37.4 76% 40 29.94 0.0
08 06:35 SW 9 10.00 Partly Cloudy SCT080 SCT100 44.6 35.6 71% 40 29.94 0.0
08 06:15 SW 10 10.00 Overcast SCT080 OVC100 46.4 37.4 71% 42 29.94 0.0
08 05:55 SW 8 10.00 Overcast OVC100 46.4 37.4 71% 43 29.94 0.0
08 05:35 SW 8 10.00 Overcast OVC100 46.4 35.6 66% 43 29.94 0.0
08 05:15 SW 8 10.00 Overcast SCT070 SCT090 OVC110 46.4 35.6 66% 43 29.94 0.0
08 04:55 SW 9 10.00 Mostly Cloudy SCT070 SCT090 BKN110 46.4 35.6 66% 42 29.95 0.0
08 04:35 SW 9 10.00 Mostly Cloudy BKN100 BKN110 46.4 35.6 66% 42 29.94 0.0
08 04:15 SW 12 10.00 Overcast SCT070 OVC110 46.4 37.4 71% 42 29.94 0.0
08 03:55 SW 13 10.00 Mostly Cloudy SCT070 BKN110 44.6 35.6 71% 39 29.95 0.0
08 03:35 SW 9 10.00 Mostly Cloudy BKN110 44.6 35.6 71% 40 29.95 0.0
08 03:15 SW 9 10.00 Mostly Cloudy BKN110 44.6 35.6 71% 40 29.94 0.0
08 02:55 SW 9 10.00 Partly Cloudy SCT110 44.6 35.6 71% 40 29.95 0.0
08 02:35 SW 9 10.00 Fair CLR 44.6 35.6 71% 40 29.96 0.0
08 02:15 SW 9 10.00 Fair CLR 44.6 35.6 71% 40 29.95 0.0
08 01:55 SW 9 10.00 Fair CLR 44.6 35.6 71% 40 29.96 0.0
08 01:35 SW 9 10.00 Fair CLR 44.6 35.6 71% 40 29.96 0.0
08 01:15 SW 9 10.00 Fair CLR 44.6 35.6 71% 40 29.96 0.0
08 00:55 SW 10 10.00 Fair CLR 46.4 35.6 66% 42 29.96 0.0
08 00:35 SW 10 10.00 Fair CLR 46.4 35.6 66% 42 29.96 0.0
08 00:15 SW 10 10.00 Partly Cloudy SCT075 SCT085 46.4 35.6 66% 42 29.96 0.0
07 23:55 SW 7 10.00 Mostly Cloudy BKN080 46.4 37.4 71% 43 29.96 0.0
07 23:35 SW 8 10.00 Partly Cloudy SCT090 46.4 37.4 71% 43 29.96 0.0
07 23:15 SW 7 10.00 Partly Cloudy SCT090 46.4 37.4 71% 43 29.96 0.0
07 22:55 SW 7 10.00 Mostly Cloudy BKN090 46.4 37.4 71% 43 29.96 0.0
07 22:35 SW 7 10.00 Mostly Cloudy BKN100 48.2 37.4 66% 46 29.96 0.0
07 22:15 SW 7 10.00 Mostly Cloudy SCT080 BKN100 48.2 37.4 66% 46 29.95 0.0
07 21:55 SW 7 10.00 Overcast SCT080 OVC100 48.2 39.2 71% 46 29.96 0.0
07 21:35 SW 5 10.00 Overcast OVC100 50 37.4 62% 49 29.95 0.0
07 21:15 W 7 10.00 Overcast SCT070 OVC100 51.8 35.6 54% 29.95 0.0
07 20:55 W 13 G 16 10.00 Overcast SCT070 OVC090 53.6 33.8 47% 29.95 0.0
07 20:35 SW 7 10.00 Overcast SCT070 OVC090 51.8 35.6 54% 29.95 0.0
07 20:15 SW 7 10.00 Mostly Cloudy SCT080 BKN110 51.8 37.4 58% 29.95 0.0
07 19:55 SW 6 10.00 Partly Cloudy SCT085 53.6 35.6 51% 29.94 0.0
07 19:35 SW 10 10.00 Mostly Cloudy SCT070 BKN085 53.6 33.8 47% 29.94 0.0
07 19:15 SW 7 10.00 Mostly Cloudy BKN070 BKN085 55.4 33.8 44% 29.95 0.0
07 18:55 SW 9 10.00 Partly Cloudy SCT070 SCT080 55.4 33.8 44% 29.95 0.0
07 18:35 SW 9 10.00 Mostly Cloudy BKN070 BKN080 55.4 33.8 44% 29.95 0.0
07 18:15 W 6 10.00 Partly Cloudy SCT070 SCT080 55.4 32 41% 29.95 0.0
07 17:55 SW 8 10.00 Partly Cloudy SCT070 SCT080 57.2 32 39% 29.95 0.0
07 17:35 NW 5 10.00 Mostly Cloudy BKN070 BKN080 57.2 33.8 41% 29.95 0.0
07 17:15 W 8 10.00 Mostly Cloudy SCT065 BKN080 55.4 32 41% 29.96 0.0
07 16:35 NW 14 G 23 10.00 Mostly Cloudy BKN065 57.2 32 39% 29.96 0.0
07 16:15 W 8 G 13 10.00 Partly Cloudy SCT065 53.6 32 44% 29.96 0.0
07 15:55 W 6 10.00 Partly Cloudy SCT065 55.4 32 41% 29.96 0.0
07 15:35 W 7 10.00 Partly Cloudy SCT065 55.4 33.8 44% 29.96 0.0
07 15:15 NW 8 10.00 Partly Cloudy SCT065 55.4 32 41% 29.96 0.0
07 14:55 N 15 G 20 10.00 Mostly Cloudy BKN065 55.4 32 41% 29.97 0.0
07 14:15 NW 16 G 23 10.00 Partly Cloudy SCT060 55.4 33.8 44% 29.98 0.0
07 13:55 NW 14 G 21 10.00 Partly Cloudy SCT060 55.4 33.8 44% 29.98 0.0
07 13:35 W 16 G 24 10.00 Fair CLR 53.6 32 44% 29.99 0.0
07 13:15 W 13 G 22 10.00 Fair CLR 53.6 32 44% 30 0.0
07 12:55 W 13 10.00 Fair CLR 53.6 32 44% 30 0.0
07 12:35 NW 12 G 25 10.00 Fair CLR 51.8 32 47% 30 0.0
07 12:15 W 14 G 25 10.00 Fair CLR 51.8 32 47% 30 0.0
07 11:55 NW 9 G 23 10.00 Fair CLR 51.8 32 47% 30 0.0
07 11:35 NW 12 G 17 10.00 Fair CLR 50 32 50% 46 30 0.0
07 11:15 NW 12 G 18 10.00 Fair CLR 50 32 50% 46 30 0.0
07 10:55 W 15 10.00 Fair CLR 48.2 32 54% 43 30 0.0
07 10:35 W 13 G 18 10.00 Fair CLR 48.2 32 54% 43 30 0.0
07 10:15 W 13 G 17 10.00 Fair CLR 46.4 32 57% 41 30 0.0
07 09:55 W 8 10.00 Fair CLR 46.4 33.8 62% 43 30.01 0.0
07 09:35 W 7 10.00 Fair CLR 44.6 33.8 66% 41 30.01 0.0
07 09:15 NW 7 10.00 Fair CLR 42.8 32 66% 39 30 0.0
07 08:55 W 6 10.00 Fair CLR 44.6 33.8 66% 42 30 0.0
07 08:35 W 6 10.00 Fair CLR 42.8 33.8 71% 40 30 0.0
07 08:15 W 6 10.00 Fair CLR 41 33.8 76% 38 30 0.0
07 07:55 W 3 10.00 Fair CLR 39.2 33.8 81% 30 0.0
07 07:35 W 3 10.00 Fair CLR 37.4 33.8 87% 30 0.0
07 07:15 W 3 10.00 Fair CLR 35.6 33.8 93% 29.99 0.0
07 06:55 W 3 10.00 Fair CLR 35.6 33.8 93% 29.99 0.0
07 06:35 W 3 10.00 Fair CLR 35.6 32 87% 29.99 0.0
07 06:15 W 3 10.00 Fair CLR 35.6 33.8 93% 29.98 0.0
07 05:55 W 5 10.00 Fair CLR 35.6 33.8 93% 32 29.98 0.0
07 05:35 W 5 10.00 Fair CLR 35.6 33.8 93% 32 29.99 0.0
07 05:15 W 5 10.00 Fair CLR 37.4 33.8 87% 34 29.98 0.0
07 04:55 W 5 10.00 Fair CLR 37.4 33.8 87% 34 29.98 0.0
07 04:35 W 5 10.00 Fair CLR 37.4 35.6 93% 34 29.97 0.0
07 04:15 W 5 10.00 Fair CLR 37.4 35.6 93% 34 29.97 0.0
07 03:55 W 5 10.00 Fair CLR 39.2 35.6 87% 36 29.97 0.0
07 03:35 W 5 10.00 Fair CLR 39.2 35.6 87% 36 29.98 0.0
07 03:15 W 6 10.00 Fair CLR 39.2 35.6 87% 36 29.98 0.0
07 02:55 W 6 10.00 Fair CLR 41 35.6 81% 38 29.98 0.0
07 02:35 W 3 10.00 Fair CLR 41 35.6 81% 29.98 0.0
07 02:15 W 3 10.00 Fair CLR 42.8 37.4 81% 29.99 0.0
07 01:55 W 3 10.00 Fair CLR 42.8 37.4 81% 29.98 0.0
07 01:35 W 3 10.00 Fair CLR 42.8 37.4 81% 29.98 0.0
07 01:15 Calm 10.00 Fair CLR 42.8 37.4 81% 29.98 0.0
07 00:55 SW 3 10.00 Fair CLR 42.8 39.2 87% 29.99 0.0
07 00:35 Calm 10.00 Fair CLR 44.6 39.2 81% 29.98 0.0
07 00:15 Calm 10.00 Fair CLR 44.6 41 87% 29.98 0.0
06 23:55 Calm 10.00 Fair CLR 44.6 41 87% 29.98 0.0
06 23:35 Calm 10.00 Fair CLR 44.6 41 87% 29.98 0.0
06 23:15 Calm 10.00 Fair CLR 46.4 39.2 76% 29.98 0.0
06 22:55 Calm 10.00 Fair CLR 46.4 41 82% 29.98 0.0
06 22:35 W 3 10.00 Partly Cloudy SCT060 48.2 41 76% 29.98 0.0
06 22:15 NW 3 10.00 Mostly Cloudy BKN050 48.2 42.8 82% 29.98 0.0
06 21:55 W 3 10.00 Overcast BKN050 OVC055 50 42.8 76% 29.97 0.0
06 21:35 Calm 10.00 Overcast SCT049 OVC055 50 44.6 82% 29.96 0.0
06 21:15 Calm 10.00 Overcast SCT049 OVC055 50 42.8 76% 29.96 0.0
06 20:55 Calm 10.00 Mostly Cloudy SCT049 BKN055 50 42.8 76% 29.96 0.0
06 20:35 Calm 10.00 Partly Cloudy SCT065 SCT080 50 41 71% 29.95 0.0
06 20:15 NW 3 10.00 Overcast OVC080 51.8 39.2 62% 29.94 0.0
06 19:55 NW 3 10.00 Overcast SCT045 SCT060 OVC080 51.8 39.2 62% 29.94 0.0
06 19:35 NW 5 10.00 Overcast BKN047 BKN060 OVC080 53.6 39.2 58% 29.94 0.0
06 19:15 NW 7 10.00 Overcast BKN049 BKN060 OVC080 51.8 39.2 62% 29.94 0.0
06 18:55 NW 7 10.00 Overcast OVC060 51.8 37.4 58% 29.95 0.0
06 18:35 NW 8 10.00 Overcast SCT047 BKN060 OVC080 53.6 37.4 54% 29.96 0.0
06 18:15 W 6 10.00 Overcast OVC050 53.6 37.4 54% 29.95 0.0
06 17:55 W 8 10.00 Overcast SCT048 BKN055 OVC085 53.6 37.4 54% 29.95 0.0
06 17:35 NW 8 10.00 Overcast SCT048 OVC085 53.6 37.4 54% 29.94 0.0
06 17:15 W 9 10.00 Overcast SCT046 OVC085 53.6 37.4 54% 29.94 0.0
06 16:55 NW 7 10.00 Overcast SCT046 OVC085 53.6 39.2 58% 29.94 0.0
06 16:35 W 8 10.00 Overcast SCT043 OVC085 53.6 39.2 58% 29.94 0.0
06 16:15 W 7 10.00 Overcast OVC085 53.6 37.4 54% 29.94 0.0
06 15:55 W 8 10.00 Overcast OVC085 53.6 37.4 54% 29.94 0.0
06 15:35 NW 6 10.00 Overcast OVC085 53.6 35.6 51% 29.93 0.0
06 15:15 NW 8 10.00 Overcast SCT043 OVC085 53.6 37.4 54% 29.93 0.0
06 14:55 W 9 10.00 Overcast OVC085 53.6 39.2 58% 29.94 0.0
06 14:35 W 9 10.00 Overcast OVC085 53.6 37.4 54% 29.95 0.0
06 14:15 NW 7 10.00 Overcast OVC085 53.6 37.4 54% 29.93 0.0
06 13:55 W 7 10.00 Overcast OVC085 53.6 37.4 54% 29.94 0.0
06 13:35 W 8 10.00 Overcast OVC085 51.8 37.4 58% 29.95 0.0
06 13:15 W 8 10.00 Overcast OVC085 53.6 37.4 54% 29.95 0.0
06 12:55 NW 8 10.00 Overcast OVC085 53.6 35.6 51% 29.95 0.0
06 12:35 W 7 10.00 Overcast OVC085 53.6 39.2 58% 29.94 0.0
06 12:15 W 7 10.00 Overcast OVC085 51.8 37.4 58% 29.94 0.0
06 11:55 W 9 10.00 Overcast OVC085 51.8 37.4 58% 29.95 0.0
06 11:35 N 9 10.00 Overcast OVC085 51.8 37.4 58% 29.94 0.0
06 11:15 NW 10 10.00 Overcast OVC085 51.8 37.4 58% 29.93 0.0
06 10:55 N 10 10.00 Mostly Cloudy BKN085 50 39.2 67% 46 29.92 0.0
06 10:35 N 8 10.00 Partly Cloudy SCT060 50 39.2 67% 47 29.91 0.0
06 10:15 NW 10 10.00 Partly Cloudy SCT060 48.2 39.2 71% 44 29.91 0.0
06 09:55 NW 6 10.00 Partly Cloudy SCT055 46.4 41 82% 44 29.91 0.0
06 09:35 NW 7 10.00 Mostly Cloudy BKN055 46.4 41 82% 43 29.91 0.0
Date Time (edt) Wind (mph) Vis. (mi.) Weather Sky Cond. Air Dwpt Max. Min. Relative Humidity Wind Chill (°F) Heat Index (°F) altimeter (in) sea level (mb) 1 hr 3 hr 6 hr
6 hour
Temperature (ºF) Pressure Precipitation (in)